createdAt,value
2018-11-02T00:00:39.221Z,3.23
2018-11-02T00:05:48.768Z,3.67
2018-11-02T00:10:58.389Z,3.47
2018-11-02T00:16:08.170Z,3.67
2018-11-02T00:21:14.421Z,2.90
2018-11-02T00:26:24.053Z,2.67
2018-11-02T00:31:27.911Z,2.17
2018-11-02T00:36:37.522Z,3.03
2018-11-02T00:41:47.072Z,2.97
2018-11-02T00:46:55.339Z,2.50
2018-11-02T00:52:05.329Z,2.67
2018-11-02T00:57:14.853Z,2.47
2018-11-02T01:02:24.330Z,2.20
2018-11-02T01:07:33.987Z,1.90
2018-11-02T01:12:43.640Z,1.90
2018-11-02T01:17:53.125Z,1.50
2018-11-02T01:23:02.827Z,1.50
2018-11-02T01:28:12.358Z,1.30
2018-11-02T01:33:23.864Z,1.40
2018-11-02T01:38:33.929Z,1.80
2018-11-02T01:43:43.543Z,2.00
2018-11-02T01:48:53.186Z,1.70
2018-11-02T01:54:02.870Z,1.73
2018-11-02T01:59:12.531Z,1.70
2018-11-02T02:04:22.241Z,1.93
2018-11-02T02:09:32.002Z,2.20
2018-11-02T02:14:41.580Z,2.10
2018-11-02T02:19:51.122Z,2.00
2018-11-02T02:25:00.871Z,2.60
2018-11-02T02:30:13.054Z,3.03
2018-11-02T02:35:22.652Z,3.27
2018-11-02T02:40:32.172Z,3.03
2018-11-02T02:45:42.032Z,4.67
2018-11-02T02:50:51.525Z,5.40
2018-11-02T02:56:00.932Z,6.40
2018-11-02T03:01:10.339Z,7.40
2018-11-02T03:06:19.831Z,8.63
2018-11-02T03:11:29.473Z,8.00
2018-11-02T03:16:40.044Z,8.27
2018-11-02T03:21:49.747Z,9.07
2018-11-02T03:26:59.145Z,7.63
2018-11-02T03:32:08.791Z,9.80
2018-11-02T03:37:18.210Z,10.33
2018-11-02T03:42:27.964Z,8.80
2018-11-02T03:47:37.486Z,9.60
2018-11-02T03:52:47.030Z,10.53
2018-11-02T03:57:56.719Z,11.87
2018-11-02T04:03:07.261Z,11.67
2018-11-02T04:08:16.804Z,13.50
2018-11-02T04:13:26.475Z,13.83
2018-11-02T04:18:36.240Z,13.70
2018-11-02T04:23:45.707Z,13.80
2018-11-02T04:28:56.297Z,12.20
2018-11-02T04:34:05.956Z,11.60
2018-11-02T04:39:15.694Z,12.67
2018-11-02T04:44:25.312Z,13.73
2018-11-02T04:49:34.725Z,13.57
2018-11-02T04:54:44.405Z,12.77
2018-11-02T04:59:54.002Z,15.77
2018-11-02T05:05:03.714Z,12.90
2018-11-02T05:10:13.164Z,12.77
2018-11-02T05:15:25.439Z,14.67
2018-11-02T05:20:34.930Z,14.97
2018-11-02T05:25:45.731Z,10.90
2018-11-02T05:30:56.698Z,12.17
2018-11-02T05:36:08.470Z,12.53
2018-11-02T05:41:21.416Z,10.43
2018-11-02T05:46:33.816Z,13.10
2018-11-02T05:51:44.552Z,10.80
2018-11-02T05:56:59.247Z,11.47
2018-11-02T06:02:06.786Z,12.97
2018-11-02T06:07:23.039Z,11.57
2018-11-02T06:12:37.381Z,8.07
2018-11-02T06:17:46.945Z,9.40
2018-11-02T06:23:04.624Z,11.73
2018-11-02T06:28:17.830Z,9.53
2018-11-02T06:33:31.443Z,6.87
2018-11-02T06:38:41.324Z,12.13
2018-11-02T06:43:51.215Z,15.93
2018-11-02T06:49:03.009Z,11.27
2018-11-02T06:54:13.997Z,9.00
2018-11-02T06:59:26.125Z,12.47
2018-11-02T07:04:39.296Z,13.53
2018-11-02T07:09:51.658Z,13.93
2018-11-02T07:15:02.179Z,14.33
2018-11-02T07:20:11.626Z,13.07
2018-11-02T07:25:23.092Z,14.10
2018-11-02T07:30:43.698Z,8.53
2018-11-02T07:35:58.304Z,10.97
2018-11-02T07:41:10.579Z,11.53
2018-11-02T07:46:21.866Z,12.33
2018-11-02T07:51:34.562Z,9.87
2018-11-02T07:56:47.364Z,13.77
2018-11-02T08:01:58.135Z,13.73
2018-11-02T08:07:07.825Z,9.93
2018-11-02T08:12:17.621Z,11.73
2018-11-02T08:17:27.258Z,11.33
2018-11-02T08:22:36.807Z,11.87
2018-11-02T08:27:46.445Z,9.17
2018-11-02T08:32:56.478Z,11.27
2018-11-02T08:38:06.263Z,11.00
2018-11-02T08:43:15.757Z,10.77
2018-11-02T08:48:25.386Z,11.53
2018-11-02T08:53:35.052Z,10.20
2018-11-02T08:58:44.813Z,9.07
2018-11-02T09:03:54.338Z,8.93
2018-11-02T09:09:04.713Z,10.03
2018-11-02T09:14:14.257Z,7.03
2018-11-02T09:19:24.443Z,8.27
2018-11-02T09:24:33.998Z,7.50
2018-11-02T09:29:43.426Z,9.97
2018-11-02T09:34:53.277Z,10.13
2018-11-02T09:40:03.111Z,6.67
2018-11-02T09:45:13.812Z,7.60
2018-11-02T09:50:23.410Z,7.67
2018-11-02T09:55:33.043Z,8.73
2018-11-02T10:00:42.681Z,8.73
2018-11-02T10:05:52.509Z,8.07
2018-11-02T10:11:02.108Z,9.23
2018-11-02T10:16:11.976Z,7.83
2018-11-02T10:21:22.457Z,7.97
2018-11-02T10:26:32.138Z,6.90
2018-11-02T10:31:42.434Z,7.43
2018-11-02T10:36:52.086Z,5.57
2018-11-02T10:42:03.119Z,5.33
2018-11-02T10:47:13.331Z,6.27
2018-11-02T10:52:23.079Z,4.93
2018-11-02T10:57:32.581Z,5.37
2018-11-02T11:02:42.334Z,5.90
2018-11-02T11:07:51.900Z,5.40
2018-11-02T11:13:02.259Z,5.30
2018-11-02T11:18:11.809Z,5.40
2018-11-02T11:23:21.764Z,3.90
2018-11-02T11:28:33.428Z,3.47
2018-11-02T11:33:43.539Z,3.40
2018-11-02T11:38:53.726Z,4.27
2018-11-02T11:44:03.970Z,4.30
2018-11-02T11:49:13.684Z,5.10
2018-11-02T11:54:23.481Z,4.10
2018-11-02T11:59:33.484Z,3.90
2018-11-02T12:04:45.098Z,4.40
2018-11-02T12:09:54.996Z,3.73
2018-11-02T12:15:05.105Z,3.00
2018-11-02T12:20:19.980Z,3.93
2018-11-02T12:25:29.982Z,2.53
2018-11-02T12:30:39.755Z,2.43
2018-11-02T12:35:50.200Z,2.40
2018-11-02T12:41:00.422Z,2.43
2018-11-02T12:46:10.320Z,2.97
2018-11-02T12:51:20.441Z,2.27
2018-11-02T12:56:30.690Z,2.27
2018-11-02T13:01:41.370Z,2.40
2018-11-02T13:06:50.948Z,2.00
2018-11-02T13:12:01.377Z,1.57
2018-11-02T13:17:14.217Z,1.93
2018-11-02T13:22:25.118Z,2.30
2018-11-02T13:27:34.850Z,2.00
2018-11-02T13:32:44.609Z,1.77
2018-11-02T13:37:54.823Z,1.80
2018-11-02T13:43:05.207Z,2.27
2018-11-02T13:48:14.857Z,1.80
2018-11-02T13:53:24.922Z,2.23
2018-11-02T13:58:34.878Z,1.67
2018-11-02T14:03:44.891Z,2.80
2018-11-02T14:08:54.820Z,1.80
2018-11-02T14:14:05.070Z,1.63
2018-11-02T14:19:15.189Z,1.60
2018-11-02T14:24:25.274Z,2.00
2018-11-02T14:29:35.839Z,2.17
2018-11-02T14:34:45.501Z,2.00
2018-11-02T14:39:56.075Z,2.30
2018-11-02T14:45:07.710Z,2.13
2018-11-02T14:50:17.776Z,1.50
2018-11-02T14:55:27.526Z,1.87
2018-11-02T15:00:37.073Z,1.80
2018-11-02T15:05:47.364Z,2.10
2018-11-02T15:10:57.707Z,1.80
2018-11-02T15:16:08.031Z,2.80
2018-11-02T15:21:17.915Z,2.03
2018-11-02T15:26:27.836Z,2.07
2018-11-02T15:31:37.797Z,2.13
2018-11-02T15:36:47.591Z,2.20
2018-11-02T15:41:57.303Z,1.83
2018-11-02T15:47:07.114Z,2.10
2018-11-02T15:52:17.036Z,1.90
2018-11-02T15:57:26.633Z,2.23
2018-11-02T16:02:36.305Z,1.90
2018-11-02T16:07:45.830Z,1.80
2018-11-02T16:12:56.046Z,1.80
2018-11-02T16:18:07.128Z,1.97
2018-11-02T16:23:18.949Z,1.70
2018-11-02T16:28:29.150Z,2.33
2018-11-02T16:33:39.451Z,2.43
2018-11-02T16:38:49.332Z,2.20
2018-11-02T16:44:00.589Z,1.73
2018-11-02T16:49:11.126Z,2.10
2018-11-02T16:54:20.971Z,2.30
2018-11-02T16:59:30.740Z,2.37
2018-11-02T17:04:40.352Z,3.17
2018-11-02T17:09:50.183Z,2.30
2018-11-02T17:15:00.006Z,2.73
2018-11-02T17:20:12.197Z,3.13
2018-11-02T17:25:21.690Z,2.80
2018-11-02T17:30:31.227Z,3.10
2018-11-02T17:35:40.926Z,3.00
2018-11-02T17:40:51.411Z,3.40
2018-11-02T17:46:01.366Z,2.97
2018-11-02T17:51:11.435Z,3.53
2018-11-02T17:56:21.464Z,3.57
2018-11-02T18:01:31.348Z,3.63
2018-11-02T18:06:41.280Z,3.77
2018-11-02T18:11:51.117Z,4.30
2018-11-02T18:17:01.039Z,3.73
2018-11-02T18:22:11.453Z,3.67
2018-11-02T18:27:21.099Z,4.83
2018-11-02T18:32:31.168Z,6.53
2018-11-02T18:37:41.075Z,4.53
2018-11-02T18:42:50.718Z,5.00
2018-11-02T18:48:00.465Z,5.72
2018-11-02T18:53:10.228Z,5.63
2018-11-02T18:58:20.613Z,5.27
2018-11-02T19:03:30.425Z,6.47
2018-11-02T19:08:39.989Z,6.50
2018-11-02T19:13:49.632Z,5.87
2018-11-02T19:18:59.062Z,6.40
2018-11-02T19:24:08.791Z,5.50
2018-11-02T19:29:23.986Z,5.97
2018-11-02T19:34:33.694Z,5.80
2018-11-02T19:39:43.334Z,7.70
2018-11-02T19:44:52.962Z,6.27
2018-11-02T19:49:57.205Z,5.97
2018-11-02T19:55:07.198Z,6.10
2018-11-02T20:00:17.262Z,5.63
2018-11-02T20:05:22.867Z,5.77
2018-11-02T20:10:32.811Z,6.03
2018-11-02T20:15:42.591Z,6.80
2018-11-02T20:20:52.512Z,4.87
2018-11-02T20:26:02.189Z,6.80
2018-11-02T20:31:11.892Z,4.53
2018-11-02T20:36:21.645Z,4.50
2018-11-02T20:41:31.292Z,5.50
2018-11-02T20:46:40.862Z,6.37
2018-11-02T20:51:50.379Z,4.80
2018-11-02T20:57:00.083Z,6.70
2018-11-02T21:07:28.187Z,4.30
2018-11-02T21:12:37.634Z,4.87
2018-11-02T21:17:47.482Z,4.77
2018-11-02T21:22:57.014Z,5.53
2018-11-02T21:28:06.682Z,6.23
2018-11-02T21:33:16.242Z,5.77
2018-11-02T21:38:25.899Z,5.67
2018-11-02T21:43:35.739Z,5.00
2018-11-02T21:48:45.142Z,6.00
2018-11-02T21:53:54.868Z,6.03
2018-11-02T21:59:04.314Z,5.20
2018-11-02T22:04:13.902Z,5.30
2018-11-02T22:09:23.611Z,4.83
2018-11-02T22:14:33.359Z,6.03
2018-11-02T22:19:43.916Z,6.33
2018-11-02T22:24:54.320Z,5.23
2018-11-02T22:30:04.515Z,5.07
2018-11-02T22:35:15.163Z,6.70
2018-11-02T22:40:24.909Z,5.50
2018-11-02T22:45:34.345Z,5.07
2018-11-02T22:50:43.999Z,4.13
2018-11-02T22:55:54.074Z,4.63
2018-11-02T23:01:09.179Z,5.30
2018-11-02T23:06:18.853Z,5.07
2018-11-02T23:11:28.380Z,6.67
2018-11-02T23:16:37.964Z,4.27
2018-11-02T23:21:48.578Z,4.50
2018-11-02T23:26:58.196Z,4.30
2018-11-02T23:32:07.925Z,5.83
2018-11-02T23:37:17.789Z,7.00
2018-11-02T23:42:27.261Z,7.23
2018-11-02T23:47:37.621Z,8.23
2018-11-02T23:52:47.120Z,5.30
2018-11-02T23:57:56.713Z,7.47
